createdAt,value
2018-12-13T00:01:22.877Z,65.99
2018-12-13T00:03:52.589Z,65.77
2018-12-13T00:06:21.732Z,65.55
2018-12-13T00:08:52.575Z,65.45
2018-12-13T00:11:21.690Z,65.65
2018-12-13T00:13:50.811Z,65.39
2018-12-13T00:16:20.875Z,65.45
2018-12-13T00:18:50.036Z,65.44
2018-12-13T00:21:19.250Z,65.39
2018-12-13T00:23:48.443Z,65.33
2018-12-13T00:26:17.528Z,65.16
2018-12-13T00:28:46.603Z,64.97
2018-12-13T00:31:15.682Z,64.95
2018-12-13T00:33:46.250Z,64.77
2018-12-13T00:36:18.727Z,64.76
2018-12-13T00:38:47.775Z,64.79
2018-12-13T00:41:16.857Z,64.90
2018-12-13T00:43:45.993Z,65.02
2018-12-13T00:46:15.110Z,64.88
2018-12-13T00:48:44.232Z,64.78
2018-12-13T00:51:13.302Z,64.79
2018-12-13T00:53:43.096Z,64.94
2018-12-13T00:56:12.174Z,64.97
2018-12-13T00:58:41.338Z,64.96
2018-12-13T01:01:10.921Z,65.27
2018-12-13T01:03:40.314Z,65.21
2018-12-13T01:06:09.443Z,65.32
2018-12-13T01:08:38.576Z,65.21
2018-12-13T01:11:07.900Z,65.54
2018-12-13T01:13:37.720Z,65.36
2018-12-13T01:16:07.002Z,65.48
2018-12-13T01:18:36.282Z,65.66
2018-12-13T01:21:05.713Z,65.54
2018-12-13T01:23:35.521Z,65.43
2018-12-13T01:26:04.689Z,65.62
2018-12-13T01:28:33.795Z,65.69
2018-12-13T01:31:02.930Z,65.53
2018-12-13T01:33:32.088Z,65.73
2018-12-13T01:36:01.201Z,65.35
2018-12-13T01:38:30.379Z,65.16
2018-12-13T01:40:59.607Z,65.48
2018-12-13T01:43:35.094Z,65.53
2018-12-13T01:46:05.787Z,65.23
2018-12-13T01:48:34.930Z,65.21
2018-12-13T01:51:04.066Z,65.33
2018-12-13T01:53:33.253Z,65.56
2018-12-13T01:56:02.420Z,65.41
2018-12-13T01:58:31.476Z,65.33
2018-12-13T02:01:00.857Z,65.41
2018-12-13T02:03:29.936Z,65.42
2018-12-13T02:05:59.021Z,65.15
2018-12-13T02:08:28.232Z,65.21
2018-12-13T02:10:57.424Z,65.04
2018-12-13T02:13:26.654Z,65.04
2018-12-13T02:15:56.368Z,65.25
2018-12-13T02:18:25.463Z,64.81
2018-12-13T02:20:54.623Z,64.61
2018-12-13T02:23:23.792Z,64.85
2018-12-13T02:25:54.781Z,64.60
2018-12-13T02:28:24.086Z,64.51
2018-12-13T02:30:53.311Z,64.53
2018-12-13T02:33:22.371Z,64.71
2018-12-13T02:35:51.429Z,64.68
2018-12-13T02:38:20.526Z,64.36
2018-12-13T02:40:49.674Z,64.10
2018-12-13T02:43:18.744Z,64.50
2018-12-13T02:45:47.811Z,64.23
2018-12-13T02:48:16.927Z,64.49
2018-12-13T02:50:45.982Z,63.88
2018-12-13T02:53:16.084Z,63.66
2018-12-13T02:55:45.174Z,63.12
2018-12-13T02:58:14.379Z,62.79
2018-12-13T03:00:43.588Z,62.58
2018-12-13T03:03:15.728Z,62.80
2018-12-13T03:05:44.906Z,62.49
2018-12-13T03:08:14.038Z,62.29
2018-12-13T03:10:43.241Z,62.46
2018-12-13T03:13:13.127Z,62.52
2018-12-13T03:15:42.239Z,62.35
2018-12-13T03:18:11.428Z,62.10
2018-12-13T03:20:40.633Z,62.11
2018-12-13T03:23:09.711Z,62.01
2018-12-13T03:25:38.716Z,62.05
2018-12-13T03:28:07.807Z,61.92
2018-12-13T03:30:36.905Z,61.52
2018-12-13T03:33:05.974Z,61.32
2018-12-13T03:35:35.061Z,61.50
2018-12-13T03:38:04.100Z,61.37
2018-12-13T03:40:33.159Z,61.09
2018-12-13T03:43:02.226Z,60.90
2018-12-13T03:45:31.307Z,61.13
2018-12-13T03:48:00.344Z,61.08
2018-12-13T03:50:29.446Z,60.90
2018-12-13T03:52:58.515Z,61.06
2018-12-13T03:55:27.652Z,60.56
2018-12-13T03:57:56.889Z,60.71
2018-12-13T04:00:26.579Z,60.73
2018-12-13T04:03:03.654Z,60.64
2018-12-13T04:37:43.319Z,61.94
2018-12-13T04:40:12.632Z,62.02
2018-12-13T04:42:41.694Z,61.98
2018-12-13T04:45:10.776Z,62.03
2018-12-13T04:47:40.076Z,61.90
2018-12-13T04:50:09.983Z,61.93
2018-12-13T04:52:39.079Z,61.67
2018-12-13T04:55:08.292Z,61.79
2018-12-13T04:57:37.399Z,61.52
2018-12-13T05:00:07.318Z,61.41
2018-12-13T05:02:36.341Z,61.33
2018-12-13T05:05:05.505Z,61.23
2018-12-13T05:07:34.552Z,61.09
2018-12-13T05:10:03.675Z,60.95
2018-12-13T05:12:32.867Z,61.12
2018-12-13T05:15:02.056Z,60.99
2018-12-13T05:17:31.225Z,61.22
2018-12-13T05:20:00.313Z,61.07
2018-12-13T05:22:29.455Z,61.31
2018-12-13T05:24:58.529Z,61.25
2018-12-13T05:27:27.622Z,61.08
2018-12-13T05:29:56.674Z,61.17
2018-12-13T05:32:26.112Z,61.12
2018-12-13T05:34:55.217Z,60.85
2018-12-13T05:37:24.308Z,61.01
2018-12-13T05:39:53.368Z,60.93
2018-12-13T05:42:23.489Z,60.87
2018-12-13T05:44:52.588Z,61.05
2018-12-13T05:47:21.736Z,60.72
2018-12-13T05:49:51.007Z,60.92
2018-12-13T05:52:21.023Z,60.54
2018-12-13T05:54:50.204Z,60.46
2018-12-13T05:57:19.253Z,60.38
2018-12-13T05:59:48.322Z,60.60
2018-12-13T06:02:18.022Z,60.52
2018-12-13T06:04:47.151Z,60.48
2018-12-13T06:07:16.260Z,60.55
2018-12-13T06:09:45.357Z,60.14
2018-12-13T06:12:14.667Z,60.09
2018-12-13T06:14:43.775Z,60.59
2018-12-13T06:17:13.872Z,60.27
2018-12-13T06:19:43.098Z,59.99
2018-12-13T06:22:12.227Z,60.24
2018-12-13T06:24:41.442Z,60.05
2018-12-13T06:27:10.718Z,60.06
2018-12-13T06:29:41.877Z,60.02
2018-12-13T06:32:09.079Z,59.97
2018-12-13T06:34:38.175Z,60.43
2018-12-13T06:37:07.242Z,60.14
2018-12-13T06:39:36.306Z,60.16
2018-12-13T06:42:05.399Z,60.49
2018-12-13T06:44:34.482Z,60.37
2018-12-13T06:47:03.751Z,60.56
2018-12-13T06:49:33.057Z,60.82
2018-12-13T06:52:02.379Z,60.64
2018-12-13T06:54:31.648Z,61.05
2018-12-13T06:57:00.922Z,60.97
2018-12-13T06:59:30.624Z,60.98
2018-12-13T07:01:59.831Z,60.88
2018-12-13T07:04:29.467Z,61.09
2018-12-13T07:06:58.650Z,61.12
2018-12-13T07:09:27.776Z,61.13
2018-12-13T07:11:57.060Z,60.82
2018-12-13T07:14:26.366Z,60.71
2018-12-13T07:16:55.740Z,60.65
2018-12-13T07:19:25.887Z,60.76
2018-12-13T07:21:55.174Z,60.60
2018-12-13T07:24:24.301Z,60.49
2018-12-13T07:26:53.344Z,60.42
2018-12-13T07:29:22.389Z,60.70
2018-12-13T07:31:51.716Z,60.72
2018-12-13T07:34:20.774Z,60.85
2018-12-13T07:36:49.851Z,60.97
2018-12-13T07:39:19.123Z,60.91
2018-12-13T07:41:48.341Z,61.24
2018-12-13T07:44:18.057Z,61.19
2018-12-13T07:46:47.150Z,61.25
2018-12-13T07:49:17.158Z,61.26
2018-12-13T07:51:48.215Z,61.13
2018-12-13T07:54:17.534Z,61.34
2018-12-13T07:56:46.850Z,61.34
2018-12-13T07:59:16.049Z,61.42
2018-12-13T08:01:45.844Z,61.70
2018-12-13T08:04:15.231Z,61.62
2018-12-13T08:06:44.512Z,61.63
2018-12-13T08:09:13.825Z,61.82
2018-12-13T08:11:43.444Z,61.95
2018-12-13T08:14:12.832Z,61.88
2018-12-13T08:16:42.173Z,61.84
2018-12-13T08:19:11.436Z,61.92
2018-12-13T08:21:40.914Z,62.02
2018-12-13T08:24:10.224Z,61.68
2018-12-13T08:26:39.327Z,61.64
2018-12-13T08:29:09.454Z,61.83
2018-12-13T08:31:38.865Z,61.57
2018-12-13T08:34:08.041Z,61.96
2018-12-13T08:36:37.341Z,61.89
2018-12-13T08:39:09.984Z,61.93
2018-12-13T08:41:38.227Z,61.82
2018-12-13T08:44:08.159Z,62.32
2018-12-13T08:46:37.208Z,62.12
2018-12-13T08:49:06.377Z,62.43
2018-12-13T08:51:36.911Z,62.36
2018-12-13T08:54:06.986Z,62.74
2018-12-13T08:56:37.110Z,62.50
2018-12-13T08:59:06.292Z,62.66
2018-12-13T09:01:36.924Z,62.50
2018-12-13T09:04:07.871Z,62.75
2018-12-13T09:06:37.160Z,62.71
2018-12-13T09:09:08.738Z,62.59
2018-12-13T09:11:38.675Z,62.57
2018-12-13T09:14:08.653Z,62.58
2018-12-13T09:16:38.051Z,62.50
2018-12-13T09:19:07.490Z,62.55
2018-12-13T09:21:37.477Z,62.70
2018-12-13T09:24:06.928Z,62.47
2018-12-13T09:26:37.365Z,62.64
2018-12-13T09:29:06.979Z,62.76
2018-12-13T09:31:39.397Z,62.91
2018-12-13T09:34:29.123Z,63.11
2018-12-13T09:37:16.045Z,63.03
2018-12-13T09:39:46.213Z,62.92
2018-12-13T09:42:15.860Z,63.27
2018-12-13T09:44:44.983Z,63.15
2018-12-13T09:47:14.208Z,63.23
2018-12-13T09:49:44.472Z,63.45
2018-12-13T09:52:14.312Z,63.37
2018-12-13T09:54:45.394Z,63.28
2018-12-13T10:00:10.912Z,63.43
2018-12-13T10:02:41.977Z,63.41
2018-12-13T10:05:12.879Z,63.37
2018-12-13T10:07:42.110Z,63.34
2018-12-13T10:10:11.334Z,63.26
2018-12-13T10:12:41.070Z,63.27
2018-12-13T10:15:12.127Z,63.25
2018-12-13T10:17:41.444Z,63.14
2018-12-13T10:20:14.960Z,63.26
2018-12-13T10:22:44.165Z,63.28
2018-12-13T10:25:13.476Z,63.08
2018-12-13T10:27:42.729Z,63.19
2018-12-13T10:30:12.385Z,63.25
2018-12-13T10:32:41.537Z,63.25
2018-12-13T10:35:11.555Z,63.45
2018-12-13T10:37:40.407Z,63.21
2018-12-13T10:40:09.606Z,63.43
2018-12-13T10:42:38.721Z,63.16
2018-12-13T10:45:08.628Z,63.08
2018-12-13T10:47:37.743Z,63.11
2018-12-13T10:50:08.441Z,63.27
2018-12-13T10:52:38.593Z,63.01
2018-12-13T10:55:07.984Z,63.02
2018-12-13T10:57:41.095Z,63.16
2018-12-13T11:00:17.845Z,62.64
2018-12-13T11:02:59.029Z,62.84
2018-12-13T11:05:30.765Z,63.00
2018-12-13T11:08:00.033Z,63.00
2018-12-13T11:10:29.981Z,62.90
2018-12-13T11:12:59.918Z,63.19
2018-12-13T11:15:29.177Z,63.27
2018-12-13T11:17:58.387Z,63.47
2018-12-13T11:20:27.788Z,63.18
2018-12-13T11:22:58.189Z,63.14
2018-12-13T11:25:27.337Z,63.15
2018-12-13T11:28:32.589Z,63.18
2018-12-13T11:31:02.271Z,63.24
2018-12-13T11:33:31.594Z,62.99
2018-12-13T11:36:00.773Z,62.99
2018-12-13T11:38:31.694Z,62.83
2018-12-13T11:41:00.901Z,63.04
2018-12-13T11:43:31.829Z,63.24
2018-12-13T11:46:01.192Z,63.15
2018-12-13T11:48:30.605Z,63.04
2018-12-13T11:51:00.035Z,63.00
2018-12-13T11:53:29.215Z,62.92
2018-12-13T11:55:58.877Z,62.94
2018-12-13T11:58:28.036Z,62.94
2018-12-13T12:00:57.307Z,62.60
2018-12-13T12:03:27.285Z,62.45
2018-12-13T12:05:56.406Z,62.44
2018-12-13T12:08:27.553Z,62.44
2018-12-13T12:10:57.180Z,62.51
2018-12-13T12:13:27.399Z,62.61
2018-12-13T12:15:57.384Z,62.49
2018-12-13T12:18:26.780Z,62.37
2018-12-13T12:20:55.873Z,62.20
2018-12-13T12:23:25.683Z,62.41
2018-12-13T12:25:54.992Z,62.10
2018-12-13T12:28:25.128Z,61.97
2018-12-13T12:30:55.638Z,62.32
2018-12-13T12:33:28.623Z,62.21
2018-12-13T12:36:02.266Z,62.46
2018-12-13T12:38:40.195Z,62.38
2018-12-13T12:41:10.365Z,62.31
2018-12-13T12:43:39.729Z,62.15
2018-12-13T12:46:09.802Z,62.19
2018-12-13T12:48:41.606Z,62.33
2018-12-13T12:51:11.927Z,62.44
2018-12-13T12:53:41.153Z,62.30
2018-12-13T12:56:11.068Z,62.16
2018-12-13T12:58:40.382Z,62.19
2018-12-13T13:01:09.908Z,62.34
2018-12-13T13:03:39.110Z,62.38
2018-12-13T13:06:08.277Z,62.17
2018-12-13T13:08:39.034Z,61.95
2018-12-13T13:11:08.999Z,62.05
2018-12-13T13:13:38.991Z,61.94
2018-12-13T13:16:09.660Z,61.90
2018-12-13T13:18:40.059Z,61.93
2018-12-13T13:21:09.302Z,61.90
2018-12-13T13:23:38.540Z,61.84
2018-12-13T13:26:07.692Z,61.58
2018-12-13T13:28:44.306Z,61.91
2018-12-13T13:31:13.565Z,61.64
2018-12-13T13:33:43.002Z,61.67
2018-12-13T13:36:12.183Z,61.39
2018-12-13T13:38:43.226Z,61.77
2018-12-13T13:41:12.679Z,61.62
2018-12-13T13:43:42.540Z,61.62
2018-12-13T13:46:11.736Z,61.38
2018-12-13T13:48:43.306Z,61.53
2018-12-13T13:51:12.745Z,61.59
2018-12-13T13:53:43.218Z,61.71
2018-12-13T13:56:14.203Z,61.63
2018-12-13T13:58:44.138Z,61.56
2018-12-13T14:01:13.304Z,61.60
2018-12-13T14:03:44.234Z,61.48
2018-12-13T14:06:13.499Z,61.75
2018-12-13T14:08:43.670Z,61.44
2018-12-13T14:11:12.814Z,61.49
2018-12-13T14:13:41.858Z,61.38
2018-12-13T14:16:11.144Z,61.34
2018-12-13T14:18:40.365Z,61.22
2018-12-13T14:21:10.039Z,61.38
2018-12-13T14:23:39.272Z,61.38
2018-12-13T14:26:08.371Z,61.51
2018-12-13T14:28:38.728Z,61.47
2018-12-13T14:31:07.921Z,61.36
2018-12-13T14:33:36.956Z,61.64
2018-12-13T14:36:06.694Z,61.58
2018-12-13T14:38:36.782Z,61.75
2018-12-13T14:41:06.039Z,61.41
2018-12-13T14:43:39.462Z,61.44
2018-12-13T14:46:08.598Z,61.75
2018-12-13T14:48:37.951Z,61.57
2018-12-13T14:51:08.331Z,61.35
2018-12-13T14:53:37.518Z,61.40
2018-12-13T14:56:06.824Z,61.52
2018-12-13T14:58:36.181Z,61.42
2018-12-13T15:01:05.492Z,61.22
2018-12-13T15:03:34.669Z,61.10
2018-12-13T15:06:04.915Z,61.28
2018-12-13T15:08:34.246Z,61.14
2018-12-13T15:11:03.481Z,61.09
2018-12-13T15:13:33.048Z,61.12
2018-12-13T15:16:02.726Z,61.31
2018-12-13T15:18:32.060Z,61.49
2018-12-13T15:21:01.433Z,61.52
2018-12-13T15:23:31.054Z,61.47
2018-12-13T15:26:04.939Z,61.19
2018-12-13T15:28:34.174Z,61.34
2018-12-13T15:33:38.975Z,61.49
2018-12-13T15:36:08.252Z,61.27
2018-12-13T15:38:40.370Z,61.21
2018-12-13T15:41:10.359Z,60.78
2018-12-13T15:43:41.041Z,61.05
2018-12-13T15:46:12.538Z,60.96
2018-12-13T15:48:42.081Z,61.30
2018-12-13T15:51:11.401Z,61.03
2018-12-13T15:53:40.699Z,61.35
2018-12-13T15:56:13.991Z,61.39
2018-12-13T15:58:43.245Z,61.42
2018-12-13T16:01:16.331Z,61.33
2018-12-13T16:03:45.508Z,61.50
2018-12-13T16:06:15.345Z,61.55
2018-12-13T16:08:45.443Z,61.27
2018-12-13T16:11:15.567Z,61.27
2018-12-13T16:13:45.045Z,61.31
2018-12-13T16:16:14.298Z,61.04
2018-12-13T16:18:43.832Z,61.31
2018-12-13T16:21:13.125Z,60.93
2018-12-13T16:23:42.766Z,61.12
2018-12-13T16:26:12.187Z,60.83
2018-12-13T16:28:41.499Z,60.73
2018-12-13T16:31:11.110Z,60.62
2018-12-13T16:33:41.161Z,60.64
2018-12-13T16:36:10.562Z,60.44
2018-12-13T16:38:39.943Z,60.48
2018-12-13T16:41:09.026Z,60.35
2018-12-13T16:43:42.717Z,60.23
2018-12-13T16:46:12.205Z,60.19
2018-12-13T16:48:41.439Z,60.31
2018-12-13T16:51:10.845Z,60.13
2018-12-13T16:53:40.646Z,60.33
2018-12-13T16:56:09.752Z,60.36
2018-12-13T16:58:38.973Z,60.60
2018-12-13T17:01:08.179Z,60.82
2018-12-13T17:03:40.982Z,60.93
2018-12-13T17:06:11.121Z,61.23
2018-12-13T17:08:40.244Z,61.46
2018-12-13T17:11:09.462Z,61.46
2018-12-13T17:13:39.644Z,61.42
2018-12-13T17:16:10.278Z,61.57
2018-12-13T17:18:39.449Z,61.47
2018-12-13T17:21:08.705Z,61.38
2018-12-13T17:23:38.011Z,61.35
2018-12-13T17:26:08.065Z,61.53
2018-12-13T17:28:37.369Z,61.24
2018-12-13T17:31:06.792Z,61.29
2018-12-13T17:33:35.787Z,61.43
2018-12-13T17:36:04.942Z,61.27
2018-12-13T17:38:34.007Z,61.19
2018-12-13T17:41:03.143Z,61.31
2018-12-13T17:43:32.195Z,61.33
2018-12-13T17:46:02.294Z,61.39
2018-12-13T17:48:31.397Z,61.34
2018-12-13T17:51:00.420Z,61.51
2018-12-13T17:53:29.505Z,61.17
2018-12-13T17:55:58.592Z,61.17
2018-12-13T17:58:27.632Z,61.16
2018-12-13T18:00:58.452Z,61.42
2018-12-13T18:03:27.500Z,61.24
2018-12-13T18:05:57.676Z,61.67
2018-12-13T18:08:26.790Z,61.33
2018-12-13T18:10:56.556Z,61.23
2018-12-13T18:13:25.540Z,61.28
2018-12-13T18:15:55.750Z,61.47
2018-12-13T18:18:24.887Z,61.37
2018-12-13T18:20:54.128Z,61.38
2018-12-13T18:23:23.270Z,61.36
2018-12-13T18:25:52.456Z,61.33
2018-12-13T18:28:21.728Z,61.37
2018-12-13T18:30:51.262Z,61.65
2018-12-13T18:33:20.260Z,61.28
2018-12-13T18:35:50.434Z,60.99
2018-12-13T18:38:19.466Z,61.20
2018-12-13T18:40:48.553Z,61.26
2018-12-13T18:43:18.621Z,61.21
2018-12-13T18:45:52.110Z,61.10
2018-12-13T18:48:25.411Z,61.46
2018-12-13T18:50:54.573Z,61.50
2018-12-13T18:53:23.889Z,61.46
2018-12-13T18:55:54.862Z,61.29
2018-12-13T18:58:24.008Z,61.36
2018-12-13T19:00:53.018Z,61.47
2018-12-13T19:03:22.585Z,61.71
2018-12-13T19:05:51.705Z,61.69
2018-12-13T19:08:21.075Z,61.77
2018-12-13T19:10:50.802Z,61.83
2018-12-13T19:13:19.921Z,61.84
2018-12-13T19:15:50.315Z,62.05
2018-12-13T19:18:19.638Z,61.98
2018-12-13T19:20:48.739Z,61.72
2018-12-13T19:23:17.940Z,61.82
2018-12-13T19:25:47.094Z,62.23
2018-12-13T19:28:16.358Z,62.35
2018-12-13T19:30:50.089Z,62.15
2018-12-13T19:33:19.289Z,62.13
2018-12-13T19:35:48.454Z,62.44
2018-12-13T19:38:17.805Z,62.14
2018-12-13T19:40:48.445Z,62.19
2018-12-13T19:43:17.815Z,62.50
2018-12-13T19:45:47.330Z,62.77
2018-12-13T19:48:16.593Z,62.53
2018-12-13T19:50:45.739Z,62.81
2018-12-13T19:53:14.931Z,62.96
2018-12-13T19:55:44.108Z,62.75
2018-12-13T19:58:13.250Z,62.97
2018-12-13T20:00:42.327Z,62.79
2018-12-13T20:03:11.853Z,63.15
2018-12-13T20:05:40.893Z,62.96
2018-12-13T20:08:09.959Z,62.92
2018-12-13T20:10:39.012Z,62.99
2018-12-13T20:13:08.161Z,63.25
2018-12-13T20:15:37.338Z,63.16
2018-12-13T20:18:07.104Z,63.37
2018-12-13T20:20:36.205Z,63.25
2018-12-13T20:23:05.436Z,63.36
2018-12-13T20:25:34.626Z,63.15
2018-12-13T20:28:03.665Z,63.46
2018-12-13T20:30:32.783Z,63.45
2018-12-13T20:33:01.835Z,63.30
2018-12-13T20:35:30.954Z,63.35
2018-12-13T20:38:00.949Z,63.50
2018-12-13T20:40:31.012Z,63.51
2018-12-13T20:43:00.226Z,63.84
2018-12-13T20:48:02.862Z,63.67
2018-12-13T20:50:31.851Z,63.83
2018-12-13T20:53:00.930Z,63.82
2018-12-13T20:55:30.133Z,63.93
2018-12-13T20:57:59.839Z,64.01
2018-12-13T21:00:28.861Z,64.02
2018-12-13T21:02:58.129Z,64.17
2018-12-13T21:05:27.252Z,63.76
2018-12-13T21:08:00.983Z,64.05
2018-12-13T21:10:31.207Z,64.05
2018-12-13T21:13:00.407Z,64.19
2018-12-13T21:15:30.842Z,64.34
2018-12-13T21:17:59.934Z,64.45
2018-12-13T21:20:31.096Z,64.14
2018-12-13T21:23:03.501Z,64.43
2018-12-13T21:25:34.209Z,64.48
2018-12-13T21:28:06.171Z,64.36
2018-12-13T21:30:37.949Z,64.37
2018-12-13T22:01:30.423Z,64.05
2018-12-13T22:03:59.455Z,64.09
2018-12-13T22:06:28.495Z,64.21
2018-12-13T22:08:58.942Z,64.20
2018-12-13T22:11:28.289Z,64.26
2018-12-13T22:13:57.303Z,64.04
2018-12-13T22:16:27.858Z,63.79
2018-12-13T22:18:58.140Z,63.96
2018-12-13T22:21:28.482Z,64.08
2018-12-13T22:23:57.540Z,64.20
2018-12-13T22:26:27.561Z,64.09
2018-12-13T22:29:11.542Z,64.08
2018-12-13T22:31:40.636Z,64.04
2018-12-13T22:34:13.240Z,64.25
2018-12-13T22:36:41.823Z,64.26
2018-12-13T22:39:11.574Z,63.97
2018-12-13T22:41:41.502Z,64.31
2018-12-13T22:44:11.718Z,64.31
2018-12-13T22:46:42.751Z,64.20
2018-12-13T22:49:11.882Z,64.33
2018-12-13T22:51:40.953Z,64.46
2018-12-13T22:54:10.048Z,64.78
2018-12-13T22:56:39.146Z,64.45
2018-12-13T22:59:08.245Z,64.88
2018-12-13T23:01:38.469Z,64.99
2018-12-13T23:04:07.466Z,64.63
2018-12-13T23:06:36.540Z,64.69
2018-12-13T23:09:07.478Z,64.48
2018-12-13T23:11:37.123Z,65.00
2018-12-13T23:14:05.783Z,65.09
2018-12-13T23:16:34.870Z,64.86
2018-12-13T23:19:04.068Z,64.78
2018-12-13T23:21:34.690Z,64.95
2018-12-13T23:24:04.661Z,65.03
2018-12-13T23:26:34.651Z,65.05
2018-12-13T23:29:04.682Z,65.23
2018-12-13T23:31:33.632Z,65.22
2018-12-13T23:34:04.503Z,64.92
2018-12-13T23:36:33.530Z,65.40
2018-12-13T23:39:03.325Z,65.13
2018-12-13T23:41:38.890Z,65.18
2018-12-13T23:44:01.740Z,65.53
2018-12-13T23:46:32.294Z,65.55
2018-12-13T23:49:01.400Z,65.67
2018-12-13T23:51:30.834Z,65.66
2018-12-13T23:54:01.192Z,65.48
2018-12-13T23:56:30.913Z,65.71
2018-12-13T23:59:03.202Z,65.44
